Time;durP1;ratioP1;P1;durP2;ratioP2;P2;SDS_P1;SDS_P2;PMS_P1;PMS_P2;Temp;Humidity;BMP_temperature;BMP_pressure;BME280_temperature;BME280_humidity;BME280_pressure;Samples;Min_cycle;Max_cycle;Signal;HPM_P1;HPM_P2
2023/02/10 00:01:07;;;;;;;13.43;10.90;;;;;;;;;;5078937;28;20627;-86
2023/02/10 00:03:35;;;;;;;15.10;12.50;;;;;;;;;;5077811;28;20205;-85
2023/02/10 00:06:05;;;;;;;20.98;15.07;;;;;;;;;;5063199;28;20201;-85
2023/02/10 00:08:33;;;;;;;18.10;13.38;;;;;;;;;;5056578;28;20716;-86
2023/02/10 00:11:02;;;;;;;16.35;10.80;;;;;;;;;;5057221;28;20237;-86
2023/02/10 00:13:30;;;;;;;11.93;9.45;;;;;;;;;;5058488;28;20205;-86
2023/02/10 00:15:59;;;;;;;12.80;10.57;;;;;;;;;;5057618;28;20228;-85
2023/02/10 00:18:27;;;;;;;10.50;9.25;;;;;;;;;;5056657;28;20245;-84
2023/02/10 00:20:55;;;;;;;13.80;10.02;;;;;;;;;;5056955;28;20228;-86
2023/02/10 00:23:24;;;;;;;13.70;11.38;;;;;;;;;;5056637;28;20669;-85
2023/02/10 00:25:51;;;;;;;14.77;10.98;;;;;;;;;;5057921;28;20212;-85
2023/02/10 00:28:19;;;;;;;14.30;10.45;;;;;;;;;;5056406;28;20255;-85
2023/02/10 00:30:46;;;;;;;15.63;11.15;;;;;;;;;;5057311;28;20273;-84
2023/02/10 00:33:13;;;;;;;11.68;9.38;;;;;;;;;;5056931;28;20197;-85
2023/02/10 00:35:41;;;;;;;12.73;10.00;;;;;;;;;;5056473;28;20320;-85
2023/02/10 00:38:08;;;;;;;12.77;9.73;;;;;;;;;;5090550;22;20244;-82
2023/02/10 00:40:37;;;;;;;12.80;10.30;;;;;;;;;;5093038;28;20654;-80
2023/02/10 00:43:05;;;;;;;12.75;9.82;;;;;;;;;;5094235;28;20786;-80
2023/02/10 00:45:32;;;;;;;10.52;9.35;;;;;;;;;;5095048;28;20206;-82
2023/02/10 00:47:59;;;;;;;13.88;9.35;;;;;;;;;;5096353;28;20310;-80
2023/02/10 00:50:27;;;;;;;12.80;8.95;;;;;;;;;;5096821;28;20403;-81
2023/02/10 00:52:54;;;;;;;27.25;12.35;;;;;;;;;;5097165;28;20283;-82
2023/02/10 00:55:22;;;;;;;11.75;9.68;;;;;;;;;;5097061;28;20226;-81
2023/02/10 00:57:50;;;;;;;11.57;10.38;;;;;;;;;;5097074;28;20235;-82
2023/02/10 01:00:18;;;;;;;13.65;11.55;;;;;;;;;;5096128;28;20200;-81
2023/02/10 01:02:45;;;;;;;12.65;11.30;;;;;;;;;;5096933;28;20208;-80
2023/02/10 01:05:13;;;;;;;12.32;11.07;;;;;;;;;;5087201;28;20730;-82
2023/02/10 01:07:40;;;;;;;13.68;10.75;;;;;;;;;;5076035;28;20320;-82
2023/02/10 01:10:08;;;;;;;11.70;9.60;;;;;;;;;;5075753;28;20398;-82
2023/02/10 01:12:36;;;;;;;13.48;11.15;;;;;;;;;;5076747;28;20209;-82
2023/02/10 01:15:05;;;;;;;11.18;9.75;;;;;;;;;;5076345;28;20934;-82
2023/02/10 01:17:33;;;;;;;12.63;10.35;;;;;;;;;;5076158;28;20672;-80
2023/02/10 01:20:01;;;;;;;13.80;11.13;;;;;;;;;;5075776;28;20260;-80
2023/02/10 01:22:28;;;;;;;14.25;10.40;;;;;;;;;;5077007;28;20203;-81
2023/02/10 01:24:55;;;;;;;11.55;10.25;;;;;;;;;;5076761;28;20201;-81
2023/02/10 01:27:23;;;;;;;15.77;12.50;;;;;;;;;;5076159;28;20673;-80
2023/02/10 01:29:50;;;;;;;17.80;12.30;;;;;;;;;;5075466;28;20579;-80
2023/02/10 01:32:19;;;;;;;13.93;11.10;;;;;;;;;;5076180;28;20525;-81
2023/02/10 01:34:47;;;;;;;15.70;12.48;;;;;;;;;;5075556;28;20205;-81
2023/02/10 01:37:14;;;;;;;13.30;10.95;;;;;;;;;;5075780;28;20711;-80
2023/02/10 01:39:41;;;;;;;16.48;12.90;;;;;;;;;;5074582;28;20235;-81
2023/02/10 01:42:11;;;;;;;15.05;11.95;;;;;;;;;;5075776;28;20205;-81
2023/02/10 01:45:17;;;;;;;12.48;10.85;;;;;;;;;;5076574;28;20197;-82
2023/02/10 01:47:47;;;;;;;14.98;10.93;;;;;;;;;;5076184;28;20221;-80
2023/02/10 01:50:15;;;;;;;14.85;11.85;;;;;;;;;;5075578;28;20212;-81
2023/02/10 01:52:43;;;;;;;13.90;11.88;;;;;;;;;;5075669;28;20608;-81
2023/02/10 01:55:13;;;;;;;14.98;11.75;;;;;;;;;;5076180;28;20201;-80
2023/02/10 01:57:43;;;;;;;16.73;12.95;;;;;;;;;;5074851;28;20693;-82
2023/02/10 02:00:13;;;;;;;15.35;13.02;;;;;;;;;;5075007;28;20204;-81
2023/02/10 02:02:42;;;;;;;17.80;12.88;;;;;;;;;;5075476;28;20764;-81
2023/02/10 02:05:23;;;;;;;13.45;10.63;;;;;;;;;;5075323;28;20205;-81
2023/02/10 02:07:51;;;;;;;12.75;10.45;;;;;;;;;;5073868;28;20231;-81
2023/02/10 02:10:19;;;;;;;13.93;10.50;;;;;;;;;;5074907;28;20264;-82
2023/02/10 02:12:53;;;;;;;11.63;9.38;;;;;;;;;;5075179;28;20657;-81
2023/02/10 02:15:27;;;;;;;15.00;11.55;;;;;;;;;;5075523;28;20290;-82
2023/02/10 02:18:02;;;;;;;13.55;12.02;;;;;;;;;;5074689;28;20230;-82
2023/02/10 02:21:14;;;;;;;13.73;11.23;;;;;;;;;;5075691;28;20214;-82
2023/02/10 02:24:14;;;;;;;15.95;13.05;;;;;;;;;;5003034;28;20206;-82
2023/02/10 02:27:08;;;;;;;17.10;12.18;;;;;;;;;;5075126;28;20197;-81
2023/02/10 02:30:33;;;;;;;15.23;11.88;;;;;;;;;;5087318;28;21030;-80
2023/02/10 02:33:04;;;;;;;13.35;10.82;;;;;;;;;;5038496;28;20209;-80
2023/02/10 02:35:36;;;;;;;12.27;10.27;;;;;;;;;;5072449;28;20197;-80
2023/02/10 02:38:03;;;;;;;12.90;10.60;;;;;;;;;;5071976;28;20312;-81
2023/02/10 02:40:31;;;;;;;10.05;8.63;;;;;;;;;;5072859;28;20200;-80
2023/02/10 02:42:58;;;;;;;12.23;10.93;;;;;;;;;;5072777;28;20685;-80
2023/02/10 02:45:32;;;;;;;14.48;10.65;;;;;;;;;;5072261;28;20209;-80
2023/02/10 02:48:14;;;;;;;14.00;10.45;;;;;;;;;;5071880;28;20217;-80
2023/02/10 02:50:48;;;;;;;13.02;9.60;;;;;;;;;;5072706;28;20208;-80
2023/02/10 02:53:25;;;;;;;15.57;13.07;;;;;;;;;;5072684;28;20204;-80
2023/02/10 02:56:02;;;;;;;20.15;14.02;;;;;;;;;;5072136;28;20200;-81
2023/02/10 02:58:37;;;;;;;16.25;11.48;;;;;;;;;;5071619;28;20220;-80
2023/02/10 03:01:08;;;;;;;16.15;11.45;;;;;;;;;;5072472;28;20214;-81
2023/02/10 03:03:38;;;;;;;15.77;13.10;;;;;;;;;;5071463;28;20205;-80
2023/02/10 03:06:05;;;;;;;17.50;14.05;;;;;;;;;;5072496;28;20201;-80
2023/02/10 03:08:36;;;;;;;15.48;11.63;;;;;;;;;;5071111;28;20720;-80
2023/02/10 03:11:04;;;;;;;16.20;10.85;;;;;;;;;;5072662;28;20273;-80
2023/02/10 03:13:32;;;;;;;14.75;11.68;;;;;;;;;;5072197;28;20204;-80
2023/02/10 03:16:00;;;;;;;14.45;11.25;;;;;;;;;;5071912;28;20635;-80
2023/02/10 03:18:27;;;;;;;11.77;9.57;;;;;;;;;;5071491;28;20223;-80
2023/02/10 03:20:56;;;;;;;18.70;13.52;;;;;;;;;;5071837;28;20209;-80
2023/02/10 03:23:24;;;;;;;15.77;12.48;;;;;;;;;;5071681;28;20221;-80
2023/02/10 03:25:51;;;;;;;17.95;12.10;;;;;;;;;;5071377;28;20205;-80
2023/02/10 03:28:19;;;;;;;16.20;12.18;;;;;;;;;;5070752;28;20220;-81
2023/02/10 03:30:50;;;;;;;20.00;13.38;;;;;;;;;;5071879;28;20235;-80
2023/02/10 03:33:18;;;;;;;16.92;13.52;;;;;;;;;;5071880;28;20208;-80
2023/02/10 03:35:47;;;;;;;19.38;13.10;;;;;;;;;;5071539;28;20197;-80
2023/02/10 03:38:16;;;;;;;19.42;13.45;;;;;;;;;;5070741;28;20621;-80
2023/02/10 03:40:44;;;;;;;15.00;12.07;;;;;;;;;;5071772;28;20215;-80
2023/02/10 03:43:11;;;;;;;13.57;11.77;;;;;;;;;;5074177;28;20215;-81
2023/02/10 03:45:40;;;;;;;16.13;12.02;;;;;;;;;;5072557;28;20842;-80
2023/02/10 03:48:08;;;;;;;14.40;11.90;;;;;;;;;;5071851;28;20216;-81
2023/02/10 03:50:36;;;;;;;15.10;10.95;;;;;;;;;;5072947;28;20258;-80
2023/02/10 03:53:04;;;;;;;13.30;10.48;;;;;;;;;;5072730;28;20200;-80
2023/02/10 03:55:34;;;;;;;14.73;10.85;;;;;;;;;;5072028;28;20221;-80
2023/02/10 03:58:02;;;;;;;12.93;10.85;;;;;;;;;;5070713;28;20323;-80
2023/02/10 04:00:30;;;;;;;14.93;11.27;;;;;;;;;;5071689;28;20216;-81
2023/02/10 04:02:57;;;;;;;19.20;14.18;;;;;;;;;;5072215;28;20207;-79
2023/02/10 04:05:25;;;;;;;15.88;12.43;;;;;;;;;;5070825;28;20196;-80
2023/02/10 04:07:52;;;;;;;15.43;11.40;;;;;;;;;;5070975;28;20667;-81
2023/02/10 04:10:20;;;;;;;17.10;15.05;;;;;;;;;;5070649;28;20215;-80
2023/02/10 04:12:49;;;;;;;15.88;12.60;;;;;;;;;;5071893;28;20212;-81
2023/02/10 04:15:17;;;;;;;15.57;12.55;;;;;;;;;;5071369;28;20208;-80
2023/02/10 04:17:44;;;;;;;14.48;11.98;;;;;;;;;;5071556;28;20591;-80
2023/02/10 04:20:12;;;;;;;15.23;12.35;;;;;;;;;;5072847;28;20211;-80
2023/02/10 04:22:40;;;;;;;17.13;12.65;;;;;;;;;;5076543;28;20203;-80
2023/02/10 04:25:09;;;;;;;15.43;12.32;;;;;;;;;;5077849;28;20207;-81
2023/02/10 04:27:37;;;;;;;19.20;13.10;;;;;;;;;;5077908;28;20712;-80
2023/02/10 04:30:07;;;;;;;17.45;13.10;;;;;;;;;;5076967;28;20570;-80
2023/02/10 04:32:35;;;;;;;18.40;13.40;;;;;;;;;;5077911;28;20208;-80
2023/02/10 04:35:03;;;;;;;15.20;11.63;;;;;;;;;;5077473;28;20614;-80
2023/02/10 04:37:30;;;;;;;18.35;14.05;;;;;;;;;;5077550;28;20228;-80
2023/02/10 04:39:58;;;;;;;17.95;14.20;;;;;;;;;;5076722;28;20327;-80
2023/02/10 04:42:29;;;;;;;16.05;12.70;;;;;;;;;;5077521;28;20774;-81
2023/02/10 04:44:57;;;;;;;17.48;13.75;;;;;;;;;;5076387;28;20250;-80
2023/02/10 04:47:27;;;;;;;19.63;14.77;;;;;;;;;;5077989;28;20216;-80
2023/02/10 04:49:54;;;;;;;17.00;13.45;;;;;;;;;;5076337;28;20287;-81
2023/02/10 04:52:22;;;;;;;16.33;12.35;;;;;;;;;;5078248;28;20209;-80
2023/02/10 04:54:50;;;;;;;19.92;14.63;;;;;;;;;;5077626;28;20205;-80
2023/02/10 04:57:17;;;;;;;14.35;11.60;;;;;;;;;;5077998;28;20235;-80
2023/02/10 04:59:45;;;;;;;19.42;15.32;;;;;;;;;;5076731;28;20315;-80
2023/02/10 05:02:12;;;;;;;13.60;11.48;;;;;;;;;;5077078;28;20196;-80
2023/02/10 05:04:41;;;;;;;18.70;13.80;;;;;;;;;;5077053;28;20205;-80
2023/02/10 05:07:09;;;;;;;18.05;12.77;;;;;;;;;;5077230;28;20575;-80
2023/02/10 05:09:36;;;;;;;18.05;14.98;;;;;;;;;;5076550;28;20223;-80
2023/02/10 05:12:04;;;;;;;23.10;16.35;;;;;;;;;;5077067;28;20203;-81
2023/02/10 05:14:31;;;;;;;19.42;16.02;;;;;;;;;;5077190;28;20535;-80
2023/02/10 05:16:59;;;;;;;20.92;15.98;;;;;;;;;;5077106;28;20205;-80
2023/02/10 05:19:26;;;;;;;15.80;13.40;;;;;;;;;;5076268;28;20221;-80
2023/02/10 05:21:55;;;;;;;16.38;13.50;;;;;;;;;;5077452;28;20205;-79
2023/02/10 05:24:22;;;;;;;17.27;12.52;;;;;;;;;;5076768;28;20654;-80
2023/02/10 05:26:50;;;;;;;18.42;14.13;;;;;;;;;;5077291;28;20608;-80
2023/02/10 05:29:17;;;;;;;16.52;12.93;;;;;;;;;;5076090;28;20225;-80
2023/02/10 05:31:45;;;;;;;19.85;14.52;;;;;;;;;;5074370;28;20201;-79
2023/02/10 05:34:12;;;;;;;14.93;12.35;;;;;;;;;;5074164;28;20760;-80
2023/02/10 05:36:39;;;;;;;16.25;14.20;;;;;;;;;;5073517;28;20299;-79
2023/02/10 05:39:26;;;;;;;16.33;12.63;;;;;;;;;;5072607;28;20229;-80
2023/02/10 05:41:56;;;;;;;15.70;12.05;;;;;;;;;;5074277;28;20201;-83
2023/02/10 05:44:24;;;;;;;12.93;11.25;;;;;;;;;;5074701;28;20212;-83
2023/02/10 05:46:52;;;;;;;12.20;11.00;;;;;;;;;;5074592;28;20213;-81
2023/02/10 05:49:20;;;;;;;16.60;12.45;;;;;;;;;;5073873;28;20221;-80
2023/02/10 05:51:47;;;;;;;14.70;11.60;;;;;;;;;;5076047;28;20235;-80
2023/02/10 05:54:16;;;;;;;13.77;11.63;;;;;;;;;;5076269;28;20704;-80
2023/02/10 05:56:44;;;;;;;17.17;13.95;;;;;;;;;;5075006;28;20205;-80
2023/02/10 05:59:12;;;;;;;15.02;12.10;;;;;;;;;;5073763;28;20708;-79
2023/02/10 06:01:40;;;;;;;17.50;14.45;;;;;;;;;;5075075;28;20620;-81
2023/02/10 06:04:07;;;;;;;18.45;14.00;;;;;;;;;;5080590;28;20239;-80
2023/02/10 06:06:35;;;;;;;16.88;12.90;;;;;;;;;;5083555;28;20269;-81
2023/02/10 06:09:02;;;;;;;26.00;18.42;;;;;;;;;;5080602;28;20655;-83
2023/02/10 06:11:31;;;;;;;17.75;13.63;;;;;;;;;;5080677;28;20264;-80
2023/02/10 06:13:59;;;;;;;18.15;12.75;;;;;;;;;;5080905;28;20224;-81
2023/02/10 06:16:28;;;;;;;20.88;14.85;;;;;;;;;;5080295;28;20205;-82
2023/02/10 06:18:55;;;;;;;17.48;13.95;;;;;;;;;;5077705;28;20231;-82
2023/02/10 06:21:23;;;;;;;18.48;13.90;;;;;;;;;;5089364;28;20204;-81
2023/02/10 06:23:51;;;;;;;33.85;16.77;;;;;;;;;;5098870;28;20275;-80
2023/02/10 06:26:19;;;;;;;19.60;15.68;;;;;;;;;;5098546;28;20291;-81
2023/02/10 06:28:47;;;;;;;17.70;14.63;;;;;;;;;;5096005;28;20310;-82
2023/02/10 06:31:15;;;;;;;21.10;16.02;;;;;;;;;;5078174;28;20200;-81
2023/02/10 06:33:42;;;;;;;22.23;16.45;;;;;;;;;;5076705;28;20269;-81
2023/02/10 06:36:11;;;;;;;15.48;12.40;;;;;;;;;;5090226;28;20246;-81
2023/02/10 06:38:39;;;;;;;20.35;15.57;;;;;;;;;;5114874;22;20227;-83
2023/02/10 06:41:07;;;;;;;22.27;15.82;;;;;;;;;;5073776;28;20229;-83
2023/02/10 06:43:35;;;;;;;19.70;14.63;;;;;;;;;;5073318;28;20283;-83
2023/02/10 06:46:04;;;;;;;18.92;13.60;;;;;;;;;;5073761;28;20288;-86
2023/02/10 06:48:32;;;;;;;19.30;13.43;;;;;;;;;;5073434;28;20311;-85
2023/02/10 06:50:59;;;;;;;20.52;15.75;;;;;;;;;;5073169;28;20197;-86
2023/02/10 06:53:27;;;;;;;21.38;15.30;;;;;;;;;;5073304;28;20630;-85
2023/02/10 06:55:57;;;;;;;16.90;13.27;;;;;;;;;;5073117;28;20288;-84
2023/02/10 06:58:25;;;;;;;23.35;16.33;;;;;;;;;;5073146;28;20225;-86
2023/02/10 07:00:52;;;;;;;21.23;16.08;;;;;;;;;;5073136;28;20284;-86
2023/02/10 07:03:21;;;;;;;20.63;14.88;;;;;;;;;;5072673;28;20711;-86
2023/02/10 07:05:49;;;;;;;28.73;18.45;;;;;;;;;;5072704;28;20236;-86
2023/02/10 07:08:16;;;;;;;22.73;16.45;;;;;;;;;;5072763;28;20228;-87
2023/02/10 07:10:44;;;;;;;20.77;16.48;;;;;;;;;;5072869;28;20228;-87
2023/02/10 07:13:11;;;;;;;20.45;15.43;;;;;;;;;;5072279;28;20236;-87
2023/02/10 07:15:39;;;;;;;21.67;16.40;;;;;;;;;;5072542;28;20289;-86
2023/02/10 07:18:06;;;;;;;21.23;15.80;;;;;;;;;;5072303;28;20213;-87
2023/02/10 07:20:35;;;;;;;23.48;15.98;;;;;;;;;;5072371;28;20223;-85
2023/02/10 07:23:02;;;;;;;24.05;15.98;;;;;;;;;;5072467;28;20296;-86
2023/02/10 07:25:30;;;;;;;19.55;14.80;;;;;;;;;;5072575;28;20711;-85
2023/02/10 07:27:57;;;;;;;16.02;12.20;;;;;;;;;;5072408;28;20599;-85
2023/02/10 07:30:25;;;;;;;19.17;14.63;;;;;;;;;;5072201;28;20284;-86
2023/02/10 07:32:53;;;;;;;19.45;14.77;;;;;;;;;;5072204;28;20292;-85
2023/02/10 07:35:20;;;;;;;17.42;13.63;;;;;;;;;;5072591;28;20207;-86
2023/02/10 07:37:49;;;;;;;15.55;13.02;;;;;;;;;;5072023;28;20303;-84
2023/02/10 07:40:16;;;;;;;15.70;12.85;;;;;;;;;;5071741;28;20335;-86
2023/02/10 07:42:44;;;;;;;25.10;17.67;;;;;;;;;;5072225;28;20569;-85
2023/02/10 07:45:13;;;;;;;24.52;18.13;;;;;;;;;;5072146;28;20733;-86
2023/02/10 07:47:40;;;;;;;22.35;15.20;;;;;;;;;;5072275;28;20341;-86
2023/02/10 07:50:08;;;;;;;22.00;16.25;;;;;;;;;;5072123;28;20275;-85
2023/02/10 07:52:36;;;;;;;21.80;16.95;;;;;;;;;;5072363;28;20577;-86
2023/02/10 07:55:06;;;;;;;26.65;19.30;;;;;;;;;;5072502;28;20795;-85
2023/02/10 07:57:34;;;;;;;26.75;17.08;;;;;;;;;;5071538;28;20308;-85
2023/02/10 08:00:01;;;;;;;23.63;17.83;;;;;;;;;;5071596;28;20315;-85
2023/02/10 08:02:29;;;;;;;18.52;14.30;;;;;;;;;;5072138;28;20296;-85
2023/02/10 08:04:57;;;;;;;20.52;15.32;;;;;;;;;;5072122;28;20291;-84
2023/02/10 08:07:25;;;;;;;14.93;12.80;;;;;;;;;;5072041;28;20629;-84
2023/02/10 08:09:52;;;;;;;16.45;13.68;;;;;;;;;;5072353;28;20266;-85
2023/02/10 08:12:21;;;;;;;23.50;15.73;;;;;;;;;;5072055;28;20287;-86
2023/02/10 08:14:48;;;;;;;23.98;15.43;;;;;;;;;;5071886;28;20211;-85
2023/02/10 08:17:16;;;;;;;17.40;12.18;;;;;;;;;;5071527;28;20216;-85
2023/02/10 08:19:43;;;;;;;17.88;13.70;;;;;;;;;;5071782;28;20693;-85
2023/02/10 08:22:11;;;;;;;15.52;12.75;;;;;;;;;;5071773;28;20617;-85
2023/02/10 08:24:38;;;;;;;17.50;12.82;;;;;;;;;;5071685;28;20193;-85
2023/02/10 08:27:06;;;;;;;18.95;13.10;;;;;;;;;;5071356;28;20220;-85
2023/02/10 08:29:35;;;;;;;17.10;13.48;;;;;;;;;;5081556;22;20262;-88
2023/02/10 08:32:03;;;;;;;20.30;16.60;;;;;;;;;;5067211;28;20185;-86
2023/02/10 08:34:30;;;;;;;18.38;13.25;;;;;;;;;;5075600;28;20223;-86
2023/02/10 08:36:58;;;;;;;20.60;16.20;;;;;;;;;;5073881;28;20277;-88
2023/02/10 08:39:25;;;;;;;20.55;17.38;;;;;;;;;;5073154;28;20229;-88
2023/02/10 08:41:53;;;;;;;19.25;14.45;;;;;;;;;;5074274;28;20284;-86
2023/02/10 08:44:20;;;;;;;17.88;14.18;;;;;;;;;;5074368;28;20728;-88
2023/02/10 08:46:49;;;;;;;17.63;14.35;;;;;;;;;;5074010;28;20328;-88
2023/02/10 08:49:17;;;;;;;19.85;16.20;;;;;;;;;;5073218;28;20311;-88
2023/02/10 08:51:44;;;;;;;21.92;15.38;;;;;;;;;;5073031;28;20211;-88
2023/02/10 08:54:11;;;;;;;17.08;13.55;;;;;;;;;;5074491;28;20211;-86
2023/02/10 08:56:39;;;;;;;16.35;12.75;;;;;;;;;;5073202;28;20312;-87
2023/02/10 08:59:07;;;;;;;19.65;15.13;;;;;;;;;;5073125;28;20228;-88
2023/02/10 09:01:35;;;;;;;17.02;13.88;;;;;;;;;;5074668;28;20244;-86
2023/02/10 09:04:04;;;;;;;15.95;13.18;;;;;;;;;;5073955;28;20292;-87
2023/02/10 09:06:38;;;;;;;17.55;13.60;;;;;;;;;;5076310;28;20217;-87
2023/02/10 09:09:06;;;;;;;16.98;13.30;;;;;;;;;;5077787;28;20219;-86
2023/02/10 09:11:34;;;;;;;16.30;14.43;;;;;;;;;;5077926;28;20648;-85
2023/02/10 09:14:01;;;;;;;16.48;14.18;;;;;;;;;;5077163;28;20300;-86
2023/02/10 09:16:29;;;;;;;16.02;13.25;;;;;;;;;;5077779;28;20228;-85
2023/02/10 09:18:56;;;;;;;19.77;15.95;;;;;;;;;;5079118;28;20217;-86
2023/02/10 09:21:25;;;;;;;22.08;15.55;;;;;;;;;;5078593;28;20238;-86
2023/02/10 09:23:53;;;;;;;17.45;14.30;;;;;;;;;;5077565;28;20228;-85
2023/02/10 09:26:20;;;;;;;20.88;15.95;;;;;;;;;;5076487;28;20243;-85
2023/02/10 09:28:48;;;;;;;29.65;19.00;;;;;;;;;;5076517;28;20333;-86
2023/02/10 09:31:16;;;;;;;20.95;16.00;;;;;;;;;;5077209;28;20193;-86
2023/02/10 09:33:44;;;;;;;19.92;15.32;;;;;;;;;;5076645;28;20297;-85
2023/02/10 09:36:17;;;;;;;19.67;15.50;;;;;;;;;;5076432;28;20207;-86
2023/02/10 09:38:46;;;;;;;29.50;19.48;;;;;;;;;;5076685;28;20307;-86
2023/02/10 09:41:25;;;;;;;19.88;16.13;;;;;;;;;;5076919;28;20297;-89
2023/02/10 09:44:05;;;;;;;25.52;18.13;;;;;;;;;;5077148;28;20188;-86
2023/02/10 09:46:50;;;;;;;25.58;17.70;;;;;;;;;;5077841;28;20204;-87
2023/02/10 09:49:51;;;;;;;24.42;18.63;;;;;;;;;;5078981;28;20233;-86
2023/02/10 09:52:27;;;;;;;27.45;20.88;;;;;;;;;;5080210;28;20201;-87
2023/02/10 09:54:57;;;;;;;24.23;18.83;;;;;;;;;;5079337;28;20943;-85
2023/02/10 09:57:36;;;;;;;26.55;19.48;;;;;;;;;;5077934;28;20658;-85
2023/02/10 10:00:06;;;;;;;25.88;18.88;;;;;;;;;;5076411;28;20288;-87
2023/02/10 10:02:36;;;;;;;30.13;20.23;;;;;;;;;;5076611;28;20201;-86
2023/02/10 10:05:15;;;;;;;22.13;17.40;;;;;;;;;;5075966;28;20299;-86
2023/02/10 10:07:49;;;;;;;31.48;19.98;;;;;;;;;;5076274;28;20208;-87
2023/02/10 10:10:23;;;;;;;23.17;17.17;;;;;;;;;;5076690;28;20287;-88
2023/02/10 10:12:50;;;;;;;29.85;20.73;;;;;;;;;;5076436;28;20284;-88
2023/02/10 10:15:20;;;;;;;26.95;19.77;;;;;;;;;;5076595;28;20228;-87
2023/02/10 10:18:02;;;;;;;20.60;16.58;;;;;;;;;;5076140;28;20643;-85
2023/02/10 10:20:51;;;;;;;21.63;17.60;;;;;;;;;;5076266;28;20315;-84
2023/02/10 10:23:34;;;;;;;25.63;19.60;;;;;;;;;;5076549;28;20212;-86
2023/02/10 10:26:20;;;;;;;21.35;17.17;;;;;;;;;;5076564;28;20728;-86
2023/02/10 10:29:02;;;;;;;26.00;19.10;;;;;;;;;;5074808;28;20264;-85
2023/02/10 10:31:33;;;;;;;36.10;22.13;;;;;;;;;;5075904;28;20208;-87
2023/02/10 10:34:09;;;;;;;20.60;16.63;;;;;;;;;;5075348;28;20243;-87
2023/02/10 10:36:39;;;;;;;28.30;20.15;;;;;;;;;;5074965;28;20211;-88
2023/02/10 10:39:14;;;;;;;23.77;17.67;;;;;;;;;;5075569;28;20655;-86
2023/02/10 10:41:44;;;;;;;29.48;20.33;;;;;;;;;;5075332;28;20315;-86
2023/02/10 10:44:16;;;;;;;30.35;21.08;;;;;;;;;;5076424;28;20291;-85
2023/02/10 10:46:48;;;;;;;29.50;21.40;;;;;;;;;;5076935;28;20666;-87
2023/02/10 10:49:16;;;;;;;31.33;23.13;;;;;;;;;;5075053;28;20232;-86
2023/02/10 10:51:47;;;;;;;20.33;16.42;;;;;;;;;;5075705;28;20207;-86
2023/02/10 10:54:18;;;;;;;23.73;19.10;;;;;;;;;;5074947;28;20197;-87
2023/02/10 10:56:50;;;;;;;21.48;17.90;;;;;;;;;;5073916;28;20205;-87
2023/02/10 10:59:21;;;;;;;25.48;19.35;;;;;;;;;;5074903;28;20225;-87
2023/02/10 11:01:52;;;;;;;27.13;19.58;;;;;;;;;;5074679;28;20234;-86
2023/02/10 11:04:23;;;;;;;25.20;19.83;;;;;;;;;;5073805;28;20232;-86
2023/02/10 11:06:53;;;;;;;33.03;22.05;;;;;;;;;;5073442;28;20208;-87
2023/02/10 11:09:25;;;;;;;26.00;19.58;;;;;;;;;;5073776;28;20228;-87
2023/02/10 11:12:01;;;;;;;26.35;18.85;;;;;;;;;;5073045;28;20287;-86
2023/02/10 11:14:30;;;;;;;22.38;17.00;;;;;;;;;;5074680;28;20276;-87
2023/02/10 11:17:01;;;;;;;19.42;15.18;;;;;;;;;;5073457;28;20204;-88
2023/02/10 11:19:31;;;;;;;23.63;18.70;;;;;;;;;;5072998;28;20278;-86
2023/02/10 11:21:59;;;;;;;26.08;19.08;;;;;;;;;;5072873;28;20197;-88
2023/02/10 11:24:28;;;;;;;22.65;17.70;;;;;;;;;;5073063;28;20330;-88
2023/02/10 11:27:03;;;;;;;25.02;20.20;;;;;;;;;;5072768;28;20291;-87
2023/02/10 11:29:33;;;;;;;28.25;21.35;;;;;;;;;;5072024;28;20236;-86
2023/02/10 11:32:01;;;;;;;34.35;26.10;;;;;;;;;;5073143;28;20364;-87
2023/02/10 11:34:32;;;;;;;38.42;25.45;;;;;;;;;;5073213;28;20299;-86
2023/02/10 11:37:10;;;;;;;32.55;23.30;;;;;;;;;;5073331;28;20201;-86
2023/02/10 11:39:42;;;;;;;34.22;24.20;;;;;;;;;;5072504;28;20304;-86
2023/02/10 11:42:17;;;;;;;34.08;25.90;;;;;;;;;;5074289;28;20197;-87
2023/02/10 11:44:55;;;;;;;31.85;22.38;;;;;;;;;;5072265;28;20196;-86
2023/02/10 11:47:22;;;;;;;30.73;22.67;;;;;;;;;;5074610;28;20276;-87
2023/02/10 11:49:50;;;;;;;35.85;25.35;;;;;;;;;;5072890;28;20277;-86
2023/02/10 11:52:21;;;;;;;36.90;25.15;;;;;;;;;;5074951;28;20227;-86
2023/02/10 11:54:49;;;;;;;28.58;20.50;;;;;;;;;;5076073;28;20234;-86
2023/02/10 12:00:35;;;;;;;33.63;23.15;;;;;;;;;;5074398;28;20675;-88
2023/02/10 12:03:35;;;;;;;37.03;25.98;;;;;;;;;;5074597;28;20300;-87
2023/02/10 12:06:08;;;;;;;28.75;22.13;;;;;;;;;;5071765;28;20219;-85
2023/02/10 12:08:45;;;;;;;33.47;23.70;;;;;;;;;;5071287;28;20315;-87
2023/02/10 12:11:20;;;;;;;29.52;21.65;;;;;;;;;;5071567;28;20329;-87
2023/02/10 12:13:58;;;;;;;30.25;22.77;;;;;;;;;;5070091;28;20204;-87
2023/02/10 12:16:31;;;;;;;31.10;22.33;;;;;;;;;;5071734;28;20732;-88
2023/02/10 12:19:06;;;;;;;28.52;20.33;;;;;;;;;;5070921;28;20228;-86
2023/02/10 12:22:07;;;;;;;25.88;17.70;;;;;;;;;;5071673;28;20671;-87
2023/02/10 12:25:16;;;;;;;29.23;18.90;;;;;;;;;;5071817;28;20216;-87
2023/02/10 12:27:58;;;;;;;21.40;17.27;;;;;;;;;;5035955;28;20662;-87
2023/02/10 12:30:37;;;;;;;22.45;17.40;;;;;;;;;;5071419;28;20208;-86
2023/02/10 12:33:25;;;;;;;19.58;15.68;;;;;;;;;;5071139;28;20304;-87
2023/02/10 12:35:59;;;;;;;17.98;14.52;;;;;;;;;;5071246;28;20212;-88
2023/02/10 12:38:44;;;;;;;19.92;14.57;;;;;;;;;;5069383;28;20316;-84
2023/02/10 12:41:19;;;;;;;22.80;16.08;;;;;;;;;;5072399;28;20797;-88
2023/02/10 12:44:00;;;;;;;15.90;11.80;;;;;;;;;;5075476;28;20208;-87
2023/02/10 12:46:38;;;;;;;17.23;12.20;;;;;;;;;;5075550;28;20189;-86
2023/02/10 12:49:20;;;;;;;19.23;14.93;;;;;;;;;;5073896;28;20688;-86
2023/02/10 12:52:07;;;;;;;16.02;12.63;;;;;;;;;;5075317;28;20212;-86
2023/02/10 12:54:41;;;;;;;17.65;14.52;;;;;;;;;;5075068;28;20205;-86
2023/02/10 12:57:12;;;;;;;22.45;16.70;;;;;;;;;;5075924;28;20207;-85
2023/02/10 12:59:48;;;;;;;16.52;14.35;;;;;;;;;;5066678;28;20229;-86
2023/02/10 13:02:21;;;;;;;23.02;17.75;;;;;;;;;;5075221;28;20992;-87
2023/02/10 13:04:55;;;;;;;21.75;16.45;;;;;;;;;;5075674;28;20551;-86
2023/02/10 13:07:33;;;;;;;22.15;17.60;;;;;;;;;;5075574;28;20287;-86
2023/02/10 13:10:10;;;;;;;20.67;14.30;;;;;;;;;;5075059;28;20195;-87
2023/02/10 13:12:42;;;;;;;22.73;17.55;;;;;;;;;;5073712;28;20216;-87
2023/02/10 13:15:17;;;;;;;19.20;14.15;;;;;;;;;;5075603;28;20189;-85
2023/02/10 13:17:48;;;;;;;19.63;13.10;;;;;;;;;;5074761;28;20215;-84
2023/02/10 13:20:31;;;;;;;28.35;15.48;;;;;;;;;;5074635;28;20189;-86
2023/02/10 13:23:09;;;;;;;22.27;17.02;;;;;;;;;;5075379;28;20199;-87
2023/02/10 13:25:45;;;;;;;19.55;15.07;;;;;;;;;;5074980;28;20689;-89
2023/02/10 13:28:22;;;;;;;16.30;12.88;;;;;;;;;;5074040;28;20228;-87
2023/02/10 13:31:17;;;;;;;16.55;12.80;;;;;;;;;;5074684;28;20296;-87
2023/02/10 13:33:54;;;;;;;15.48;12.85;;;;;;;;;;5074176;28;20220;-86
2023/02/10 13:36:27;;;;;;;16.77;12.77;;;;;;;;;;5074588;28;20243;-88
2023/02/10 13:39:02;;;;;;;13.25;10.70;;;;;;;;;;5073944;28;20243;-87
2023/02/10 13:41:42;;;;;;;15.02;11.80;;;;;;;;;;5074736;28;20661;-87
2023/02/10 13:44:21;;;;;;;14.70;12.00;;;;;;;;;;5074491;28;20182;-87
2023/02/10 13:46:56;;;;;;;23.38;16.83;;;;;;;;;;5074819;28;20242;-85
2023/02/10 13:49:26;;;;;;;23.60;17.58;;;;;;;;;;5073870;28;20221;-87
2023/02/10 13:52:07;;;;;;;18.02;14.02;;;;;;;;;;5074595;28;20224;-86
2023/02/10 13:54:35;;;;;;;19.33;16.15;;;;;;;;;;5074352;28;20209;-85
2023/02/10 13:57:04;;;;;;;20.85;17.23;;;;;;;;;;5074393;28;20201;-87
2023/02/10 13:59:39;;;;;;;22.27;16.38;;;;;;;;;;5073815;28;20225;-87
2023/02/10 14:02:21;;;;;;;22.98;15.43;;;;;;;;;;5074713;28;20231;-87
2023/02/10 14:04:54;;;;;;;26.65;17.80;;;;;;;;;;5074456;28;20189;-86
2023/02/10 14:07:36;;;;;;;27.23;18.73;;;;;;;;;;5074551;28;20197;-86
2023/02/10 14:10:26;;;;;;;20.08;16.17;;;;;;;;;;5073857;28;20220;-85
2023/02/10 14:12:56;;;;;;;27.98;17.63;;;;;;;;;;5073766;28;20209;-87
2023/02/10 14:15:27;;;;;;;23.35;18.48;;;;;;;;;;5075284;28;20207;-86
2023/02/10 14:17:57;;;;;;;29.08;21.95;;;;;;;;;;5074236;28;20725;-87
2023/02/10 14:20:31;;;;;;;26.48;19.33;;;;;;;;;;5074344;28;20612;-87
2023/02/10 14:22:59;;;;;;;25.13;18.13;;;;;;;;;;5073638;28;20263;-86
2023/02/10 14:25:33;;;;;;;23.30;17.40;;;;;;;;;;5074261;28;20235;-86
2023/02/10 14:28:03;;;;;;;25.52;19.15;;;;;;;;;;5073805;28;20239;-86
2023/02/10 14:30:40;;;;;;;28.48;19.40;;;;;;;;;;5073926;28;20290;-86
2023/02/10 14:33:20;;;;;;;24.73;18.45;;;;;;;;;;5098730;22;20228;-82
2023/02/10 14:35:54;;;;;;;23.80;17.33;;;;;;;;;;5077677;28;20624;-82
2023/02/10 14:38:25;;;;;;;27.92;18.83;;;;;;;;;;5075530;28;20236;-81
2023/02/10 14:40:54;;;;;;;34.28;22.35;;;;;;;;;;5074792;28;20304;-81
2023/02/10 14:43:26;;;;;;;27.20;20.15;;;;;;;;;;5073231;28;20587;-81
2023/02/10 14:45:54;;;;;;;28.13;20.55;;;;;;;;;;5073486;28;20197;-81